Time;durP1;ratioP1;P1;durP2;ratioP2;P2;SDS_P1;SDS_P2;PMS_P1;PMS_P2;Temp;Humidity;BMP_temperature;BMP_pressure;BME280_temperature;BME280_humidity;BME280_pressure;Samples;Min_cycle;Max_cycle;Signal;HPM_P1;HPM_P2
2022/12/26 00:01:11;;;;;;;3.65;2.63;;;9.60;99.90;;;;;;4983829;28;20029;-81
2022/12/26 00:03:37;;;;;;;4.47;2.65;;;9.60;99.90;;;;;;4991234;28;20018;-80
2022/12/26 00:06:04;;;;;;;5.10;2.90;;;9.60;99.90;;;;;;4994183;28;20033;-81
2022/12/26 00:08:30;;;;;;;4.93;3.30;;;9.60;99.90;;;;;;4991865;28;20081;-81
2022/12/26 00:10:56;;;;;;;5.50;2.47;;;9.60;99.90;;;;;;4989119;28;20085;-81
2022/12/26 00:13:22;;;;;;;4.60;2.97;;;9.60;99.90;;;;;;4992238;28;20034;-81
2022/12/26 00:15:48;;;;;;;4.50;2.85;;;9.60;99.90;;;;;;4991758;28;20030;-81
2022/12/26 00:18:13;;;;;;;4.47;2.47;;;9.60;99.90;;;;;;4994588;28;20038;-81
2022/12/26 00:20:39;;;;;;;3.28;2.30;;;9.50;99.90;;;;;;5007606;28;20053;-81
2022/12/26 00:23:04;;;;;;;5.93;2.25;;;9.60;99.90;;;;;;4994489;28;20030;-80
2022/12/26 00:25:33;;;;;;;4.20;2.65;;;9.60;99.90;;;;;;4989799;28;20038;-80
2022/12/26 00:27:58;;;;;;;5.78;2.70;;;9.60;99.90;;;;;;4992666;28;20123;-81
2022/12/26 00:30:24;;;;;;;3.22;2.38;;;9.60;99.90;;;;;;4993435;28;20039;-81
2022/12/26 00:32:50;;;;;;;4.65;2.80;;;9.60;99.90;;;;;;4990390;28;20097;-80
2022/12/26 00:35:16;;;;;;;4.60;2.45;;;9.60;99.90;;;;;;4992916;28;20030;-80
2022/12/26 00:37:42;;;;;;;3.67;2.33;;;9.60;99.90;;;;;;4995373;28;20029;-80
2022/12/26 00:40:08;;;;;;;11.43;2.08;;;9.60;99.90;;;;;;4997245;28;20101;-80
2022/12/26 00:42:34;;;;;;;3.88;2.42;;;9.60;99.90;;;;;;4999815;28;20483;-81
2022/12/26 00:45:02;;;;;;;5.32;2.15;;;9.60;99.90;;;;;;4997400;28;20081;-81
2022/12/26 00:47:28;;;;;;;4.43;2.42;;;9.60;99.90;;;;;;5000995;28;20399;-81
2022/12/26 00:50:00;;;;;;;3.72;2.58;;;9.60;99.90;;;;;;5000616;28;20026;-81
2022/12/26 00:52:34;;;;;;;5.13;2.40;;;9.60;99.90;;;;;;4998959;28;20026;-81
2022/12/26 00:55:00;;;;;;;5.93;2.90;;;9.60;99.90;;;;;;5002324;28;20022;-81
2022/12/26 00:57:25;;;;;;;3.75;2.08;;;9.60;99.90;;;;;;5002367;28;20033;-81
2022/12/26 00:59:57;;;;;;;5.80;2.83;;;9.60;99.90;;;;;;4999881;28;20467;-81
2022/12/26 01:05:10;;;;;;;5.10;3.08;;;9.60;99.90;;;;;;4992712;28;20041;-80
2022/12/26 01:07:37;;;;;;;5.40;2.88;;;9.60;99.90;;;;;;4994235;28;20376;-81
2022/12/26 01:10:12;;;;;;;3.55;2.20;;;9.60;99.90;;;;;;4993264;28;20488;-80
2022/12/26 01:12:38;;;;;;;5.40;2.67;;;9.60;99.90;;;;;;4998356;28;20049;-80
2022/12/26 01:15:06;;;;;;;5.05;2.80;;;9.60;99.90;;;;;;4991613;28;20031;-79
2022/12/26 01:17:44;;;;;;;5.28;2.40;;;9.60;99.90;;;;;;4998982;28;20479;-80
2022/12/26 01:20:10;;;;;;;4.40;2.13;;;9.60;99.90;;;;;;4994817;28;20058;-79
2022/12/26 01:22:36;;;;;;;3.72;2.50;;;9.70;99.90;;;;;;4995564;28;20080;-80
2022/12/26 01:25:17;;;;;;;5.07;2.30;;;9.70;99.90;;;;;;4991303;28;20041;-80
2022/12/26 01:27:42;;;;;;;2.45;1.85;;;9.70;99.90;;;;;;4992158;28;20019;-79
2022/12/26 01:30:14;;;;;;;5.47;2.50;;;9.80;99.90;;;;;;4996895;28;20097;-80
2022/12/26 01:32:40;;;;;;;2.95;2.28;;;9.80;99.90;;;;;;4993321;28;20049;-79
2022/12/26 01:35:06;;;;;;;3.33;2.13;;;9.80;99.90;;;;;;5010373;28;20023;-81
2022/12/26 01:37:34;;;;;;;6.75;3.10;;;9.80;99.90;;;;;;4992695;28;20116;-80
2022/12/26 01:40:07;;;;;;;4.32;2.60;;;9.80;99.90;;;;;;4994636;28;20022;-80
2022/12/26 01:42:40;;;;;;;3.13;1.92;;;9.80;99.90;;;;;;4990586;28;20026;-80
2022/12/26 01:45:29;;;;;;;;;;;9.80;99.90;;;;;;4990198;28;20391;-80
2022/12/26 01:48:03;;;;;;;4.10;2.35;;;9.80;99.90;;;;;;4994974;28;19910;-80
2022/12/26 01:50:34;;;;;;;;;;;9.70;99.90;;;;;;4994621;28;20023;-80
2022/12/26 01:53:08;;;;;;;6.03;2.50;;;9.70;99.90;;;;;;5007257;28;19920;-80
2022/12/26 01:55:35;;;;;;;5.20;2.60;;;9.80;99.90;;;;;;5001692;28;20022;-78
2022/12/26 01:58:12;;;;;;;4.65;2.72;;;9.80;99.90;;;;;;5002394;28;20460;-78
2022/12/26 02:00:43;;;;;;;4.97;2.40;;;9.80;99.90;;;;;;4996296;28;20022;-79
2022/12/26 02:06:00;;;;;;;4.53;2.50;;;9.70;99.90;;;;;;4998849;28;20069;-80
2022/12/26 02:08:32;;;;;;;4.45;2.42;;;9.70;99.90;;;;;;4996484;28;20034;-79
2022/12/26 02:11:32;;;;;;;4.13;2.38;;;9.70;99.90;;;;;;4999312;28;20026;-79
2022/12/26 02:14:07;;;;;;;6.60;2.55;;;9.70;99.90;;;;;;5002151;28;20026;-79
2022/12/26 02:16:39;;;;;;;3.40;1.98;;;9.70;99.90;;;;;;4994612;28;20673;-81
2022/12/26 02:19:21;;;;;;;6.88;2.55;;;9.70;99.90;;;;;;4996713;28;20050;-79
2022/12/26 02:22:19;;;;;;;2.40;1.88;;;9.70;99.90;;;;;;4989475;28;20066;-79
2022/12/26 02:25:25;;;;;;;4.40;2.10;;;9.70;99.90;;;;;;4991900;28;20022;-80
2022/12/26 02:28:29;;;;;;;4.15;2.58;;;9.60;99.90;;;;;;5009937;28;20053;-80
2022/12/26 02:31:38;;;;;;;5.47;2.33;;;9.60;99.90;;;;;;4992409;28;20427;-83
2022/12/26 02:34:24;;;;;;;4.47;2.83;;;9.60;99.90;;;;;;4975205;28;20429;-83
2022/12/26 02:37:43;;;;;;;4.50;2.35;;;9.60;99.90;;;;;;4997651;28;20121;-83
2022/12/26 02:40:29;;;;;;;5.45;2.60;;;9.60;99.90;;;;;;4957226;28;20054;-83
2022/12/26 02:43:17;;;;;;;3.05;2.20;;;9.70;99.90;;;;;;4970241;28;20045;-84
2022/12/26 02:48:52;;;;;;;3.75;1.95;;;9.70;99.90;;;;;;4994505;28;20037;-82
2022/12/26 03:15:19;;;;;;;2.60;1.85;;;9.90;99.90;;;;;;4970010;28;20176;-81
2022/12/26 03:18:05;;;;;;;7.65;2.00;;;9.90;99.90;;;;;;4993053;28;20502;-81
2022/12/26 03:20:37;;;;;;;3.33;2.00;;;9.90;99.90;;;;;;4984047;28;20058;-82
2022/12/26 03:23:18;;;;;;;4.03;2.65;;;10.00;99.90;;;;;;4991127;28;20026;-81
2022/12/26 03:28:43;;;;;;;5.38;2.05;;;10.00;99.90;;;;;;4992654;28;20433;-81
2022/12/26 03:31:12;;;;;;;4.13;2.22;;;10.00;99.90;;;;;;4991445;28;20038;-81
2022/12/26 03:34:19;;;;;;;2.95;2.30;;;10.00;99.90;;;;;;4993777;28;20065;-81
2022/12/26 03:37:05;;;;;;;3.88;2.58;;;10.10;99.90;;;;;;4993206;28;20027;-82
2022/12/26 04:19:27;;;;;;;3.17;1.70;;;10.30;99.90;;;;;;5001126;23;20117;-74
2022/12/26 04:45:29;;;;;;;4.15;1.63;;;10.40;99.90;;;;;;4988633;28;20050;-76
2022/12/26 04:50:50;;;;;;;2.70;1.80;;;10.50;99.90;;;;;;4984724;28;20078;-76
2022/12/26 04:53:16;;;;;;;6.20;1.70;;;10.40;99.90;;;;;;5004126;28;20026;-76
2022/12/26 04:55:48;;;;;;;3.03;1.48;;;10.40;99.90;;;;;;4994601;28;20513;-77
2022/12/26 04:58:13;;;;;;;2.33;1.73;;;10.50;99.90;;;;;;4996066;28;20125;-76
2022/12/26 05:00:42;;;;;;;2.45;1.48;;;10.40;99.90;;;;;;4995696;28;20073;-74
2022/12/26 05:11:49;;;;;;;3.22;1.98;;;10.40;99.90;;;;;;4996508;28;20038;-73
2022/12/26 05:14:15;;;;;;;2.60;1.45;;;10.40;99.90;;;;;;4991271;28;20488;-74
2022/12/26 05:30:58;;;;;;;4.55;1.73;;;10.40;99.90;;;;;;4985638;28;20053;-75
2022/12/26 05:36:23;;;;;;;3.85;2.00;;;10.40;99.90;;;;;;4994488;28;20037;-77
2022/12/26 05:38:57;;;;;;;3.03;1.60;;;10.40;99.90;;;;;;4988562;28;20077;-76
2022/12/26 05:41:26;;;;;;;2.22;1.65;;;10.40;99.90;;;;;;4994995;28;20117;-77
2022/12/26 05:43:51;;;;;;;2.55;1.63;;;10.40;99.90;;;;;;4994415;28;20034;-77
2022/12/26 05:46:20;;;;;;;2.00;1.52;;;10.40;99.90;;;;;;4994527;28;20498;-75
2022/12/26 05:48:49;;;;;;;2.55;1.70;;;10.40;99.90;;;;;;4986396;28;20065;-75
2022/12/26 05:51:34;;;;;;;3.47;1.90;;;10.40;99.90;;;;;;4987254;28;20030;-77
2022/12/26 05:53:59;;;;;;;3.67;1.98;;;10.40;99.90;;;;;;4993069;28;20116;-76
2022/12/26 05:56:31;;;;;;;6.68;2.00;;;10.40;99.90;;;;;;4990609;28;20085;-75
2022/12/26 05:59:03;;;;;;;3.08;1.77;;;10.30;99.90;;;;;;4988160;28;20035;-75
2022/12/26 06:01:37;;;;;;;3.50;1.95;;;10.30;99.90;;;;;;4992704;28;20030;-75
2022/12/26 06:04:03;;;;;;;3.53;1.48;;;10.30;99.90;;;;;;4991267;28;20431;-76
2022/12/26 06:06:29;;;;;;;3.20;1.80;;;10.30;99.90;;;;;;4989424;28;20057;-76
2022/12/26 06:08:56;;;;;;;4.40;1.98;;;10.30;99.90;;;;;;4991821;28;20096;-75
2022/12/26 06:11:25;;;;;;;2.78;2.10;;;10.30;99.90;;;;;;4991585;28;20541;-75
2022/12/26 06:13:54;;;;;;;1.98;1.73;;;10.30;99.90;;;;;;4989506;28;20580;-75
2022/12/26 06:16:20;;;;;;;4.13;1.90;;;10.30;99.90;;;;;;4989741;28;20037;-75
2022/12/26 06:18:47;;;;;;;3.25;1.88;;;10.30;99.90;;;;;;4985863;28;20026;-76
2022/12/26 06:21:17;;;;;;;4.72;1.90;;;10.30;99.90;;;;;;4988125;28;20029;-75
2022/12/26 06:23:43;;;;;;;2.17;1.67;;;10.30;99.90;;;;;;4990841;28;20042;-76
2022/12/26 06:26:12;;;;;;;3.03;2.10;;;10.30;99.90;;;;;;4985965;28;20383;-75
2022/12/26 06:28:42;;;;;;;5.63;3.00;;;10.20;99.90;;;;;;4988184;28;20026;-76
2022/12/26 06:31:33;;;;;;;5.65;2.30;;;10.20;99.90;;;;;;4987705;28;20113;-75
2022/12/26 06:34:09;;;;;;;2.70;2.13;;;10.20;99.90;;;;;;4984600;28;20049;-74
2022/12/26 06:36:35;;;;;;;4.07;2.40;;;10.10;99.90;;;;;;4989622;28;20035;-75
2022/12/26 06:39:01;;;;;;;5.20;2.35;;;10.20;99.90;;;;;;4988785;28;20401;-74
2022/12/26 06:41:32;;;;;;;4.82;2.20;;;10.10;99.90;;;;;;4983619;28;20022;-76
2022/12/26 06:43:58;;;;;;;3.60;2.28;;;10.10;99.90;;;;;;4989904;28;20029;-76
2022/12/26 06:46:25;;;;;;;3.70;2.55;;;10.10;99.90;;;;;;4982965;28;20030;-77
2022/12/26 06:48:56;;;;;;;4.60;2.60;;;10.10;99.90;;;;;;4988658;28;20026;-76
2022/12/26 06:51:25;;;;;;;4.35;3.03;;;10.10;99.90;;;;;;4981790;28;20034;-77
2022/12/26 06:53:51;;;;;;;4.75;2.67;;;10.10;99.90;;;;;;4991781;28;20030;-76
2022/12/26 06:56:24;;;;;;;5.05;2.40;;;10.00;99.90;;;;;;4987177;28;20030;-76
2022/12/26 06:58:58;;;;;;;4.07;2.65;;;10.00;99.90;;;;;;5012640;28;20018;-77
2022/12/26 07:01:24;;;;;;;4.22;2.80;;;10.00;99.90;;;;;;4983761;28;20034;-77
2022/12/26 07:03:52;;;;;;;4.53;2.70;;;9.90;99.90;;;;;;4986611;28;20027;-77
2022/12/26 07:06:32;;;;;;;5.72;2.72;;;10.00;99.90;;;;;;4988317;28;20145;-77
2022/12/26 07:09:03;;;;;;;2.90;2.20;;;9.90;99.90;;;;;;4991165;28;20030;-76
2022/12/26 07:11:47;;;;;;;3.72;2.53;;;10.00;99.90;;;;;;4987370;28;20144;-76
2022/12/26 07:14:13;;;;;;;;;;;9.90;99.90;;;;;;5007145;28;20034;-76
2022/12/26 07:16:41;;;;;;;4.07;2.63;;;9.90;99.90;;;;;;4990710;28;19917;-76
2022/12/26 07:19:11;;;;;;;4.53;2.70;;;9.90;99.90;;;;;;4992163;28;20461;-76
2022/12/26 07:21:40;;;;;;;3.38;2.40;;;9.90;99.90;;;;;;4988309;28;20019;-76
2022/12/26 07:24:07;;;;;;;4.90;2.63;;;9.90;99.90;;;;;;4982535;28;20022;-76
2022/12/26 07:26:36;;;;;;;3.97;2.45;;;9.90;99.90;;;;;;4980289;28;20151;-76
2022/12/26 07:29:04;;;;;;;4.30;2.55;;;10.00;99.90;;;;;;4996619;28;20047;-76
2022/12/26 07:31:30;;;;;;;4.88;2.97;;;9.90;99.90;;;;;;4984194;28;20082;-77
2022/12/26 07:33:56;;;;;;;4.35;2.92;;;10.00;99.90;;;;;;4991851;28;20018;-76
2022/12/26 07:36:25;;;;;;;5.47;3.05;;;10.00;99.90;;;;;;4987137;28;20033;-77
2022/12/26 07:38:51;;;;;;;4.25;2.55;;;9.90;99.90;;;;;;4986534;28;20030;-77
2022/12/26 07:44:01;;;;;;;4.75;2.85;;;9.90;99.90;;;;;;4987156;28;20109;-77
2022/12/26 07:46:27;;;;;;;3.45;2.65;;;9.90;99.90;;;;;;4985661;28;20463;-75
2022/12/26 07:48:55;;;;;;;5.00;2.92;;;9.90;99.90;;;;;;4988386;28;20105;-76
2022/12/26 07:51:24;;;;;;;6.38;3.42;;;9.90;99.90;;;;;;4990016;28;20026;-75
2022/12/26 07:53:49;;;;;;;4.90;2.95;;;9.90;99.90;;;;;;4987592;28;20121;-76
2022/12/26 07:56:15;;;;;;;5.60;3.22;;;9.90;99.90;;;;;;4977533;28;20118;-76
2022/12/26 07:58:41;;;;;;;4.32;2.67;;;9.80;99.90;;;;;;4988499;28;20029;-76
2022/12/26 08:01:07;;;;;;;4.63;3.22;;;9.90;99.90;;;;;;4989455;28;20026;-74
2022/12/26 08:03:35;;;;;;;4.93;2.90;;;9.90;99.90;;;;;;4991329;28;20063;-76
2022/12/26 08:06:02;;;;;;;6.00;3.47;;;9.90;99.90;;;;;;4984081;28;20038;-75
2022/12/26 08:08:27;;;;;;;5.25;3.13;;;9.90;99.90;;;;;;4989172;28;20386;-75
2022/12/26 08:11:00;;;;;;;3.67;2.53;;;10.00;99.90;;;;;;4988211;28;20027;-74
2022/12/26 08:13:27;;;;;;;5.30;3.78;;;9.90;99.90;;;;;;4988319;28;20379;-74
2022/12/26 08:15:57;;;;;;;8.75;3.88;;;10.00;99.90;;;;;;4986044;28;20027;-74
2022/12/26 08:18:23;;;;;;;5.93;3.72;;;10.00;99.90;;;;;;4992148;28;20482;-75
2022/12/26 08:20:49;;;;;;;7.40;3.58;;;10.00;99.90;;;;;;4993385;28;20035;-73
2022/12/26 08:23:18;;;;;;;7.45;3.75;;;10.10;99.90;;;;;;4985692;28;20026;-75
2022/12/26 08:25:43;;;;;;;6.63;3.47;;;10.10;99.90;;;;;;4990579;28;20030;-74
2022/12/26 08:28:09;;;;;;;7.30;3.90;;;10.10;99.90;;;;;;4989698;28;20077;-74
2022/12/26 08:30:40;;;;;;;5.93;3.60;;;10.10;99.90;;;;;;4990236;28;20019;-75
2022/12/26 08:33:06;;;;;;;4.28;2.90;;;10.10;99.90;;;;;;4991279;28;20030;-74
2022/12/26 08:35:33;;;;;;;5.32;3.08;;;10.10;99.90;;;;;;4992659;28;20030;-73
2022/12/26 08:38:05;;;;;;;5.28;3.35;;;10.20;99.90;;;;;;4987958;28;20480;-74
2022/12/26 08:40:32;;;;;;;5.95;2.90;;;10.20;99.90;;;;;;4993756;28;20030;-75
2022/12/26 08:42:58;;;;;;;6.72;4.10;;;10.20;99.90;;;;;;4988453;28;20407;-75
2022/12/26 08:45:24;;;;;;;6.63;3.70;;;10.20;99.90;;;;;;4991064;28;20030;-75
2022/12/26 08:47:53;;;;;;;6.53;3.80;;;10.20;99.90;;;;;;4983814;28;20534;-75
2022/12/26 08:50:19;;;;;;;7.32;4.40;;;10.10;99.90;;;;;;4990774;28;20438;-75
2022/12/26 08:52:47;;;;;;;6.80;4.03;;;10.20;99.90;;;;;;4990233;28;20026;-76
2022/12/26 08:55:13;;;;;;;9.13;4.50;;;10.10;99.90;;;;;;4987335;28;20034;-77
2022/12/26 08:57:44;;;;;;;6.28;3.95;;;10.20;99.90;;;;;;4986613;28;20518;-74
2022/12/26 09:00:11;;;;;;;6.22;3.97;;;10.10;99.90;;;;;;4991196;28;20031;-76
2022/12/26 09:02:36;;;;;;;7.47;3.90;;;10.10;99.90;;;;;;4992785;28;20053;-75
2022/12/26 09:05:08;;;;;;;5.63;4.05;;;10.10;99.90;;;;;;4989088;28;20705;-76
2022/12/26 09:07:37;;;;;;;10.48;4.05;;;10.10;99.90;;;;;;4993278;28;20109;-76
2022/12/26 09:10:03;;;;;;;9.60;4.57;;;10.00;99.90;;;;;;4987781;28;20596;-75
2022/12/26 09:12:29;;;;;;;7.38;4.32;;;10.00;99.90;;;;;;4986498;28;20027;-74
2022/12/26 09:15:01;;;;;;;10.77;4.50;;;10.00;99.90;;;;;;5006868;28;20094;-76
2022/12/26 09:17:26;;;;;;;9.77;5.22;;;10.00;99.90;;;;;;4989759;28;20109;-75
2022/12/26 09:20:01;;;;;;;7.82;4.32;;;10.00;99.90;;;;;;4991400;28;20109;-75
2022/12/26 09:25:19;;;;;;;9.18;4.60;;;10.00;99.90;;;;;;4991866;28;20497;-76
2022/12/26 09:27:54;;;;;;;8.20;4.68;;;10.00;99.90;;;;;;4983602;28;20053;-75
2022/12/26 09:30:21;;;;;;;8.93;4.72;;;10.00;99.90;;;;;;4983739;28;20408;-75
2022/12/26 09:32:52;;;;;;;8.80;4.05;;;10.00;99.90;;;;;;4985645;28;20479;-75
2022/12/26 09:35:24;;;;;;;7.22;3.47;;;9.90;99.90;;;;;;4985856;28;20479;-76
2022/12/26 09:37:50;;;;;;;5.20;2.95;;;10.00;99.90;;;;;;4991340;28;20030;-75
2022/12/26 09:40:23;;;;;;;6.07;2.63;;;10.10;99.90;;;;;;4984714;28;20061;-76
2022/12/26 09:43:00;;;;;;;4.35;2.42;;;10.10;99.90;;;;;;4991546;28;20023;-75
2022/12/26 09:45:58;;;;;;;6.07;2.00;;;10.20;99.90;;;;;;4994346;28;20029;-75
2022/12/26 09:48:33;;;;;;;4.47;2.22;;;10.30;99.90;;;;;;4979706;28;20506;-76
2022/12/26 09:50:59;;;;;;;5.30;2.20;;;10.30;99.90;;;;;;4986083;28;20038;-75
2022/12/26 09:53:39;;;;;;;4.40;2.20;;;10.40;99.90;;;;;;4992684;28;20033;-75
2022/12/26 09:56:14;;;;;;;5.30;3.53;;;10.40;99.90;;;;;;4991774;28;20026;-75
2022/12/26 09:59:17;;;;;;;5.07;2.40;;;10.40;99.90;;;;;;4979481;28;20487;-75
2022/12/26 10:01:43;;;;;;;5.55;2.60;;;10.50;99.90;;;;;;4933957;29;20023;-76
2022/12/26 10:04:28;;;;;;;5.30;2.33;;;10.50;99.90;;;;;;4980169;28;20043;-75
2022/12/26 10:07:00;;;;;;;4.95;2.30;;;10.50;99.90;;;;;;4989972;28;20073;-75
2022/12/26 10:09:55;;;;;;;7.03;2.30;;;10.50;99.90;;;;;;4992157;28;20034;-76
2022/12/26 10:13:06;;;;;;;4.90;1.58;;;10.50;99.90;;;;;;4946538;28;20655;-76
2022/12/26 10:16:04;;;;;;;3.95;2.35;;;10.50;99.90;;;;;;4972541;28;20058;-75
2022/12/26 10:18:44;;;;;;;4.10;2.58;;;10.50;99.90;;;;;;4986928;28;20626;-75
2022/12/26 10:21:43;;;;;;;3.58;2.20;;;10.50;99.90;;;;;;4986009;28;20023;-74
2022/12/26 10:24:21;;;;;;;7.00;2.42;;;10.50;99.90;;;;;;4986643;28;20109;-74
2022/12/26 10:26:59;;;;;;;2.78;1.98;;;10.50;99.90;;;;;;4989295;28;20022;-74
2022/12/26 10:29:39;;;;;;;4.05;2.15;;;10.50;99.90;;;;;;4987411;28;20034;-75
2022/12/26 10:32:15;;;;;;;6.03;2.33;;;10.50;99.90;;;;;;4989990;28;20027;-75
2022/12/26 10:34:49;;;;;;;5.25;2.55;;;10.50;99.90;;;;;;4990991;28;20467;-75
2022/12/26 10:37:38;;;;;;;5.25;2.83;;;10.50;99.90;;;;;;4989983;28;20034;-73
2022/12/26 10:40:22;;;;;;;3.38;2.28;;;10.40;99.90;;;;;;4978033;28;20109;-75
2022/12/26 10:43:15;;;;;;;7.72;4.80;;;10.40;99.90;;;;;;4990853;28;20482;-75
2022/12/26 10:45:51;;;;;;;4.28;3.08;;;10.40;99.90;;;;;;4983181;28;20041;-74
2022/12/26 10:48:17;;;;;;;5.85;3.33;;;10.40;99.90;;;;;;4992113;28;20105;-74
2022/12/26 10:50:48;;;;;;;6.45;3.65;;;10.40;99.90;;;;;;4991972;28;20482;-76
2022/12/26 10:53:15;;;;;;;5.53;3.28;;;10.50;99.90;;;;;;4989249;28;20357;-75
2022/12/26 10:55:44;;;;;;;4.78;4.15;;;10.40;99.90;;;;;;4987458;28;20157;-75
2022/12/26 10:58:39;;;;;;;5.63;3.90;;;10.40;99.90;;;;;;4982414;28;20525;-74
2022/12/26 11:01:27;;;;;;;8.43;6.85;;;10.40;99.90;;;;;;4978290;28;20062;-74
2022/12/26 11:03:58;;;;;;;5.03;3.70;;;10.40;99.90;;;;;;4984343;28;20426;-74
2022/12/26 11:06:50;;;;;;;6.95;4.25;;;10.40;99.90;;;;;;4980417;28;20138;-73
2022/12/26 11:09:50;;;;;;;8.05;4.32;;;10.50;99.90;;;;;;4983812;28;20125;-73
2022/12/26 11:12:49;;;;;;;4.47;2.20;;;10.50;99.90;;;;;;4987815;28;20697;-74
2022/12/26 11:15:58;;;;;;;4.57;3.13;;;10.50;99.90;;;;;;4985835;28;20034;-73
2022/12/26 11:18:39;;;;;;;9.55;4.72;;;10.40;99.90;;;;;;4963934;28;20062;-73
2022/12/26 11:21:18;;;;;;;5.55;2.75;;;10.50;99.90;;;;;;4960875;28;20046;-73
2022/12/26 11:23:48;;;;;;;4.25;2.47;;;10.50;99.90;;;;;;4974664;28;20054;-74
2022/12/26 11:26:29;;;;;;;5.57;2.72;;;10.50;99.90;;;;;;4984030;28;20030;-74
2022/12/26 11:29:28;;;;;;;4.05;2.20;;;10.50;99.90;;;;;;4986538;28;20080;-73
2022/12/26 11:32:00;;;;;;;4.30;2.13;;;10.50;99.90;;;;;;4945116;28;20479;-74
2022/12/26 11:34:44;;;;;;;5.00;2.20;;;10.50;99.90;;;;;;4985134;28;20077;-74
2022/12/26 11:37:30;;;;;;;7.32;2.35;;;10.50;99.90;;;;;;4987777;28;20026;-73
2022/12/26 11:40:03;;;;;;;2.55;1.73;;;10.50;99.90;;;;;;4997841;28;20042;-73
2022/12/26 11:42:29;;;;;;;4.40;1.23;;;10.40;99.90;;;;;;5001497;28;20019;-74
2022/12/26 11:44:56;;;;;;;2.20;1.52;;;10.40;99.90;;;;;;4986901;28;20038;-74
2022/12/26 11:47:27;;;;;;;2.45;1.25;;;10.40;99.90;;;;;;4983316;28;20419;-73
2022/12/26 11:50:03;;;;;;;1.85;1.30;;;10.40;99.90;;;;;;4982696;28;20505;-73
2022/12/26 11:52:38;;;;;;;1.75;1.10;;;10.40;99.90;;;;;;4985497;28;20352;-73
2022/12/26 11:55:23;;;;;;;2.75;1.15;;;10.40;99.90;;;;;;4987517;28;20085;-73
2022/12/26 11:58:07;;;;;;;1.48;0.88;;;10.40;99.90;;;;;;4997369;28;20030;-73
2022/12/26 12:00:58;;;;;;;1.75;0.80;;;10.40;99.90;;;;;;4988146;28;20035;-73
2022/12/26 12:03:33;;;;;;;2.03;1.15;;;10.40;99.90;;;;;;4970879;28;20038;-73
2022/12/26 12:06:35;;;;;;;2.85;1.10;;;10.40;99.90;;;;;;4987687;28;20053;-74
2022/12/26 12:09:34;;;;;;;4.82;1.05;;;10.40;99.90;;;;;;5004745;28;20102;-74
2022/12/26 12:12:18;;;;;;;4.55;1.10;;;10.40;99.90;;;;;;4990867;28;20585;-76
2022/12/26 12:14:59;;;;;;;2.97;1.15;;;10.40;99.90;;;;;;4991016;28;20150;-74
2022/12/26 12:17:55;;;;;;;0.85;0.55;;;10.40;99.90;;;;;;4988106;28;20045;-73
2022/12/26 12:20:56;;;;;;;1.60;0.70;;;10.40;99.90;;;;;;4989012;28;20058;-72
2022/12/26 12:23:50;;;;;;;1.33;0.50;;;10.40;99.90;;;;;;4990508;28;20117;-73
2022/12/26 12:26:29;;;;;;;3.13;0.90;;;10.30;99.90;;;;;;4988723;28;20129;-73
2022/12/26 12:29:14;;;;;;;1.65;1.00;;;10.30;99.90;;;;;;4994957;28;20045;-73
2022/12/26 12:32:04;;;;;;;1.45;0.90;;;10.30;99.90;;;;;;4985111;28;20034;-73
2022/12/26 12:34:41;;;;;;;2.00;0.80;;;10.30;99.90;;;;;;4990242;28;20034;-72
2022/12/26 12:37:36;;;;;;;1.88;0.75;;;10.30;99.90;;;;;;4992940;28;20088;-73
2022/12/26 12:40:44;;;;;;;1.30;0.70;;;10.30;99.90;;;;;;4991040;28;20061;-73
2022/12/26 12:43:19;;;;;;;2.38;1.13;;;10.30;99.90;;;;;;4949132;28;20796;-73
2022/12/26 12:46:15;;;;;;;1.77;0.73;;;10.30;99.90;;;;;;4989525;28;20044;-74
2022/12/26 12:48:48;;;;;;;0.77;0.50;;;10.30;99.90;;;;;;4989439;28;20022;-73
2022/12/26 12:51:29;;;;;;;1.17;0.50;;;10.30;99.90;;;;;;4986462;28;20034;-73
2022/12/26 12:54:18;;;;;;;1.02;0.70;;;10.30;99.90;;;;;;4996000;28;20088;-73
2022/12/26 12:57:09;;;;;;;1.30;0.68;;;10.30;99.90;;;;;;4986230;28;20038;-73
2022/12/26 12:59:46;;;;;;;1.30;0.55;;;10.30;99.90;;;;;;4986467;28;20026;-73
2022/12/26 13:02:38;;;;;;;1.13;0.60;;;10.30;99.90;;;;;;4988312;28;20030;-73
2022/12/26 13:05:45;;;;;;;2.38;0.60;;;10.30;99.90;;;;;;4980296;28;20432;-73
2022/12/26 13:08:14;;;;;;;0.70;0.45;;;10.30;99.90;;;;;;4989134;28;20068;-73
2022/12/26 13:10:56;;;;;;;1.58;0.50;;;10.30;99.90;;;;;;4983370;28;20121;-73
2022/12/26 13:13:28;;;;;;;1.38;0.50;;;10.30;99.90;;;;;;4987513;28;20038;-72
2022/12/26 13:16:00;;;;;;;1.20;0.50;;;10.30;99.90;;;;;;4987027;28;20392;-73
2022/12/26 13:18:36;;;;;;;1.67;0.70;;;10.30;99.90;;;;;;4985519;28;20100;-74
2022/12/26 13:21:08;;;;;;;0.75;0.47;;;10.40;99.90;;;;;;4984312;28;20026;-72
2022/12/26 13:26:45;;;;;;;1.88;0.52;;;10.40;99.90;;;;;;4992574;28;20060;-73
2022/12/26 13:29:35;;;;;;;1.85;0.30;;;10.40;99.90;;;;;;4986543;28;20085;-72
2022/12/26 13:32:06;;;;;;;0.60;0.30;;;10.40;99.90;;;;;;4991868;28;20112;-73
2022/12/26 13:34:35;;;;;;;1.30;0.82;;;10.40;99.90;;;;;;4983942;28;22048;-74
2022/12/26 13:37:03;;;;;;;1.95;0.60;;;10.40;99.90;;;;;;4982542;28;20484;-73
2022/12/26 13:39:33;;;;;;;1.58;0.63;;;10.50;99.90;;;;;;5003885;28;20114;-72
2022/12/26 13:44:51;;;;;;;0.80;0.60;;;10.40;99.90;;;;;;4989852;28;20411;-73
2022/12/26 13:47:37;;;;;;;0.90;0.50;;;10.40;99.90;;;;;;4986747;28;20472;-72
2022/12/26 13:50:46;;;;;;;1.67;0.50;;;10.50;99.90;;;;;;4987709;28;20026;-72
2022/12/26 13:53:23;;;;;;;0.65;0.40;;;10.50;99.90;;;;;;4990783;28;20034;-74
2022/12/26 13:55:50;;;;;;;1.33;0.60;;;10.50;99.90;;;;;;4986961;28;20140;-72
2022/12/26 13:58:30;;;;;;;0.73;0.40;;;10.50;99.90;;;;;;5004243;28;20022;-72
2022/12/26 14:01:21;;;;;;;1.08;0.57;;;10.50;99.90;;;;;;4987207;28;20617;-73
2022/12/26 14:04:22;;;;;;;0.65;0.30;;;10.50;99.90;;;;;;4985372;28;20046;-74
2022/12/26 14:06:54;;;;;;;1.25;0.60;;;10.50;99.90;;;;;;4966274;28;20038;-74
2022/12/26 14:09:40;;;;;;;0.52;0.22;;;10.50;99.90;;;;;;4988524;28;20076;-74
2022/12/26 14:12:27;;;;;;;0.50;0.30;;;10.50;99.90;;;;;;4985706;28;20122;-74
2022/12/26 14:14:55;;;;;;;0.77;0.35;;;10.50;99.90;;;;;;4985259;28;20076;-74
2022/12/26 14:17:30;;;;;;;1.33;0.43;;;10.50;99.90;;;;;;4989288;28;20029;-73
2022/12/26 14:20:24;;;;;;;1.67;0.60;;;10.50;99.90;;;;;;4981516;28;20030;-73
2022/12/26 14:23:24;;;;;;;0.73;0.40;;;10.50;99.90;;;;;;4948888;28;20063;-73
2022/12/26 14:26:02;;;;;;;0.90;0.50;;;10.50;99.90;;;;;;4984276;28;20026;-73
2022/12/26 14:28:53;;;;;;;0.55;0.30;;;10.50;99.90;;;;;;4989567;28;20475;-72
2022/12/26 14:31:46;;;;;;;0.50;0.20;;;10.50;99.90;;;;;;4988531;28;20037;-73
2022/12/26 14:34:38;;;;;;;1.17;0.40;;;10.50;99.90;;;;;;4987459;28;20069;-73
2022/12/26 14:37:24;;;;;;;0.65;0.40;;;10.50;99.90;;;;;;4998243;28;20031;-73
2022/12/26 14:40:01;;;;;;;0.57;0.20;;;10.50;99.90;;;;;;4998623;28;20022;-73
2022/12/26 14:45:27;;;;;;;1.17;0.38;;;10.50;99.90;;;;;;4984672;28;20068;-72
2022/12/26 14:47:52;;;;;;;0.47;0.30;;;10.50;99.90;;;;;;4987686;28;20030;-73
2022/12/26 14:50:41;;;;;;;0.63;0.40;;;10.50;99.90;;;;;;4986059;28;20030;-73
2022/12/26 14:53:27;;;;;;;1.10;0.60;;;10.50;99.90;;;;;;4988403;28;20030;-73
2022/12/26 14:56:12;;;;;;;0.68;0.30;;;10.50;99.90;;;;;;4982882;28;20034;-73
2022/12/26 14:58:51;;;;;;;1.77;0.20;;;10.50;99.90;;;;;;4988788;28;20026;-72
2022/12/26 15:01:22;;;;;;;2.05;0.50;;;10.50;99.90;;;;;;4983844;28;20026;-74
2022/12/26 15:04:19;;;;;;;0.50;0.40;;;10.50;99.90;;;;;;4984629;28;20471;-73
2022/12/26 15:07:06;;;;;;;1.10;0.40;;;10.50;99.90;;;;;;4988982;28;20376;-72
2022/12/26 15:09:38;;;;;;;0.60;0.30;;;10.50;99.90;;;;;;4989134;28;20499;-72
2022/12/26 15:12:40;;;;;;;0.90;0.40;;;10.50;99.90;;;;;;4980856;28;20099;-72
2022/12/26 15:15:31;;;;;;;0.90;0.50;;;10.50;99.90;;;;;;4986565;28;20034;-72
2022/12/26 15:18:15;;;;;;;0.75;0.40;;;10.40;99.90;;;;;;4987991;28;20031;-72
2022/12/26 15:21:14;;;;;;;0.63;0.20;;;10.40;99.90;;;;;;4984459;28;20065;-72
2022/12/26 15:24:05;;;;;;;1.13;0.50;;;10.40;99.90;;;;;;4986163;28;20510;-72
2022/12/26 15:26:47;;;;;;;2.15;0.70;;;10.40;99.90;;;;;;4985435;28;20053;-72
2022/12/26 15:29:30;;;;;;;0.98;0.40;;;10.40;99.90;;;;;;4985867;28;20031;-72
2022/12/26 15:32:13;;;;;;;0.60;0.23;;;10.40;99.90;;;;;;4990097;28;20038;-73
2022/12/26 15:34:47;;;;;;;1.48;0.50;;;10.40;99.90;;;;;;4986237;28;20026;-72
2022/12/26 15:37:16;;;;;;;0.98;0.35;;;10.40;99.90;;;;;;4990557;28;20034;-72
2022/12/26 15:40:13;;;;;;;1.30;0.75;;;10.40;99.90;;;;;;4984391;28;20077;-72
2022/12/26 15:43:16;;;;;;;1.88;0.43;;;10.40;99.90;;;;;;4913156;28;20162;-72
2022/12/26 15:45:56;;;;;;;1.70;0.30;;;10.40;99.90;;;;;;5001284;28;20394;-73
2022/12/26 15:48:53;;;;;;;1.10;0.40;;;10.40;99.90;;;;;;5006748;28;20030;-73
2022/12/26 15:51:40;;;;;;;0.82;0.40;;;10.30;99.90;;;;;;5007178;28;20109;-72
2022/12/26 15:54:26;;;;;;;0.95;0.40;;;10.30;99.90;;;;;;5003826;28;20025;-72
2022/12/26 15:57:10;;;;;;;1.58;0.43;;;10.40;99.90;;;;;;5008984;28;20034;-72
2022/12/26 15:59:46;;;;;;;0.75;0.45;;;10.30;99.90;;;;;;5005802;28;20038;-73